sensor_id;sensor_type;location;lat;lon;timestamp;pressure;altitude;pressure_sealevel;temperature;humidity
78603;BME280;68102;46.068;18.206;2023-04-24T00:00:21;99349.47;;;15.10;46.55
78603;BME280;68102;46.068;18.206;2023-04-24T00:00:52;99341.88;;;15.07;46.28
78603;BME280;68102;46.068;18.206;2023-04-24T00:01:23;99333.22;;;15.05;47.18
78603;BME280;68102;46.068;18.206;2023-04-24T00:01:53;99340.84;;;15.08;46.87
78603;BME280;68102;46.068;18.206;2023-04-24T00:02:25;99347.00;;;15.08;46.77
78603;BME280;68102;46.068;18.206;2023-04-24T00:02:56;99346.50;;;15.05;47.51
78603;BME280;68102;46.068;18.206;2023-04-24T00:03:27;99344.53;;;15.07;47.34
78603;BME280;68102;46.068;18.206;2023-04-24T00:03:59;99333.75;;;15.00;47.72
78603;BME280;68102;46.068;18.206;2023-04-24T00:04:30;99348.16;;;15.06;47.42
78603;BME280;68102;46.068;18.206;2023-04-24T00:05:02;99344.22;;;15.02;47.26
78603;BME280;68102;46.068;18.206;2023-04-24T00:05:32;99332.00;;;14.93;47.26
78603;BME280;68102;46.068;18.206;2023-04-24T00:06:05;99329.53;;;14.91;47.66
78603;BME280;68102;46.068;18.206;2023-04-24T00:06:38;99325.69;;;14.94;48.59
78603;BME280;68102;46.068;18.206;2023-04-24T00:07:08;99336.59;;;14.99;48.53
78603;BME280;68102;46.068;18.206;2023-04-24T00:07:40;99336.94;;;14.96;47.60
78603;BME280;68102;46.068;18.206;2023-04-24T00:08:11;99339.59;;;14.96;48.09
78603;BME280;68102;46.068;18.206;2023-04-24T00:08:41;99347.75;;;14.94;46.95
78603;BME280;68102;46.068;18.206;2023-04-24T00:09:12;99336.31;;;14.94;47.39
78603;BME280;68102;46.068;18.206;2023-04-24T00:09:43;99336.31;;;14.94;46.52
78603;BME280;68102;46.068;18.206;2023-04-24T00:10:13;99332.00;;;14.93;47.29
78603;BME280;68102;46.068;18.206;2023-04-24T00:10:44;99327.88;;;14.90;46.71
78603;BME280;68102;46.068;18.206;2023-04-24T00:11:15;99331.00;;;14.94;46.99
78603;BME280;68102;46.068;18.206;2023-04-24T00:11:45;99333.66;;;14.94;47.26
78603;BME280;68102;46.068;18.206;2023-04-24T00:12:16;99322.56;;;14.90;47.22
78603;BME280;68102;46.068;18.206;2023-04-24T00:12:46;99336.47;;;14.92;47.43
78603;BME280;68102;46.068;18.206;2023-04-24T00:13:18;99333.66;;;14.94;47.66
78603;BME280;68102;46.068;18.206;2023-04-24T00:13:48;99329.69;;;14.90;48.44
78603;BME280;68102;46.068;18.206;2023-04-24T00:14:19;99322.41;;;14.83;49.46
78603;BME280;68102;46.068;18.206;2023-04-24T00:14:50;99335.53;;;14.85;49.46
78603;BME280;68102;46.068;18.206;2023-04-24T00:15:21;99329.09;;;14.79;50.30
78603;BME280;68102;46.068;18.206;2023-04-24T00:15:51;99331.94;;;14.78;49.64
78603;BME280;68102;46.068;18.206;2023-04-24T00:16:22;99329.63;;;14.75;49.92
78603;BME280;68102;46.068;18.206;2023-04-24T00:16:53;99338.25;;;14.77;49.98
78603;BME280;68102;46.068;18.206;2023-04-24T00:17:24;99342.09;;;14.74;50.35
78603;BME280;68102;46.068;18.206;2023-04-24T00:17:54;99330.81;;;14.72;50.48
78603;BME280;68102;46.068;18.206;2023-04-24T00:18:25;99337.97;;;14.72;49.84
78603;BME280;68102;46.068;18.206;2023-04-24T00:18:55;99327.38;;;14.64;50.54
78603;BME280;68102;46.068;18.206;2023-04-24T00:19:26;99330.56;;;14.59;50.26
78603;BME280;68102;46.068;18.206;2023-04-24T00:19:57;99318.31;;;14.50;50.15
78603;BME280;68102;46.068;18.206;2023-04-24T00:20:31;99335.25;;;14.49;50.62
78603;BME280;68102;46.068;18.206;2023-04-24T00:21:05;99322.00;;;14.41;51.81
78603;BME280;68102;46.068;18.206;2023-04-24T00:21:36;99334.81;;;14.37;52.33
78603;BME280;68102;46.068;18.206;2023-04-24T00:22:07;99334.50;;;14.32;52.44
78603;BME280;68102;46.068;18.206;2023-04-24T00:22:38;99318.78;;;14.22;52.10
78603;BME280;68102;46.068;18.206;2023-04-24T00:23:09;99342.31;;;14.25;52.23
78603;BME280;68102;46.068;18.206;2023-04-24T00:23:39;99332.88;;;14.23;51.64
78603;BME280;68102;46.068;18.206;2023-04-24T00:24:10;99331.59;;;14.19;52.58
78603;BME280;68102;46.068;18.206;2023-04-24T00:24:41;99337.91;;;14.18;51.75
78603;BME280;68102;46.068;18.206;2023-04-24T00:25:11;99339.06;;;14.15;51.92
78603;BME280;68102;46.068;18.206;2023-04-24T00:25:42;99338.56;;;14.12;52.69
78603;BME280;68102;46.068;18.206;2023-04-24T00:26:13;99339.75;;;14.09;52.98
78603;BME280;68102;46.068;18.206;2023-04-24T00:26:44;99339.25;;;14.06;52.44
78603;BME280;68102;46.068;18.206;2023-04-24T00:27:14;99332.00;;;14.00;53.23
78603;BME280;68102;46.068;18.206;2023-04-24T00:27:45;99334.16;;;13.96;52.44
78603;BME280;68102;46.068;18.206;2023-04-24T00:28:15;99337.81;;;13.95;52.91
78603;BME280;68102;46.068;18.206;2023-04-24T00:28:46;99335.84;;;13.89;53.07
78603;BME280;68102;46.068;18.206;2023-04-24T00:29:17;99338.66;;;13.87;53.35
78603;BME280;68102;46.068;18.206;2023-04-24T00:29:48;99326.75;;;13.83;53.89
78603;BME280;68102;46.068;18.206;2023-04-24T00:30:19;99331.41;;;13.81;54.54
78603;BME280;68102;46.068;18.206;2023-04-24T00:30:50;99333.56;;;13.78;53.33
78603;BME280;68102;46.068;18.206;2023-04-24T00:31:20;99329.56;;;13.74;53.49
78603;BME280;68102;46.068;18.206;2023-04-24T00:31:51;99330.22;;;13.76;53.81
78603;BME280;68102;46.068;18.206;2023-04-24T00:32:21;99333.06;;;13.74;53.34
78603;BME280;68102;46.068;18.206;2023-04-24T00:32:52;99335.22;;;13.71;54.00
78603;BME280;68102;46.068;18.206;2023-04-24T00:33:23;99329.44;;;13.67;53.79
78603;BME280;68102;46.068;18.206;2023-04-24T00:33:53;99326.13;;;13.65;53.92
78603;BME280;68102;46.068;18.206;2023-04-24T00:34:24;99333.44;;;13.63;54.16
78603;BME280;68102;46.068;18.206;2023-04-24T00:34:54;99329.31;;;13.60;54.55
78603;BME280;68102;46.068;18.206;2023-04-24T00:35:25;99327.81;;;13.58;54.44
78603;BME280;68102;46.068;18.206;2023-04-24T00:35:55;99336.44;;;13.60;54.28
78603;BME280;68102;46.068;18.206;2023-04-24T00:36:26;99331.78;;;13.54;54.60
78603;BME280;68102;46.068;18.206;2023-04-24T00:36:57;99327.00;;;13.49;55.21
78603;BME280;68102;46.068;18.206;2023-04-24T00:37:27;99332.28;;;13.49;55.21
78603;BME280;68102;46.068;18.206;2023-04-24T00:37:58;99330.81;;;13.47;55.41
78603;BME280;68102;46.068;18.206;2023-04-24T00:38:29;99340.09;;;13.43;55.60
78603;BME280;68102;46.068;18.206;2023-04-24T00:39:00;99328.84;;;13.41;55.67
78603;BME280;68102;46.068;18.206;2023-04-24T00:39:31;99333.63;;;13.37;55.29
78603;BME280;68102;46.068;18.206;2023-04-24T00:40:02;99345.06;;;13.38;56.32
78603;BME280;68102;46.068;18.206;2023-04-24T00:40:33;99335.78;;;13.33;56.23
78603;BME280;68102;46.068;18.206;2023-04-24T00:41:04;99335.63;;;13.27;55.82
78603;BME280;68102;46.068;18.206;2023-04-24T00:41:35;99342.59;;;13.28;56.71
78603;BME280;68102;46.068;18.206;2023-04-24T00:42:06;99338.63;;;13.24;56.44
78603;BME280;68102;46.068;18.206;2023-04-24T00:42:37;99335.50;;;13.20;56.40
78603;BME280;68102;46.068;18.206;2023-04-24T00:43:07;99344.94;;;13.23;56.67
78603;BME280;68102;46.068;18.206;2023-04-24T00:43:39;99340.94;;;13.19;57.13
78603;BME280;68102;46.068;18.206;2023-04-24T00:44:10;99337.16;;;13.21;57.23
78603;BME280;68102;46.068;18.206;2023-04-24T00:44:40;99338.97;;;13.21;57.65
78603;BME280;68102;46.068;18.206;2023-04-24T00:45:12;99337.28;;;13.20;57.62
78603;BME280;68102;46.068;18.206;2023-04-24T00:45:43;99339.94;;;13.20;57.56
78603;BME280;68102;46.068;18.206;2023-04-24T00:46:14;99329.34;;;13.20;56.91
78603;BME280;68102;46.068;18.206;2023-04-24T00:46:45;99332.28;;;13.17;57.40
78603;BME280;68102;46.068;18.206;2023-04-24T00:47:18;99334.28;;;13.15;57.11
78603;BME280;68102;46.068;18.206;2023-04-24T00:47:52;99334.28;;;13.15;56.86
78603;BME280;68102;46.068;18.206;2023-04-24T00:48:23;99334.28;;;13.15;57.06
78603;BME280;68102;46.068;18.206;2023-04-24T00:48:56;99327.31;;;13.14;57.03
78603;BME280;68102;46.068;18.206;2023-04-24T00:49:26;99327.19;;;13.07;56.79
78603;BME280;68102;46.068;18.206;2023-04-24T00:49:57;99332.66;;;13.06;57.62
78603;BME280;68102;46.068;18.206;2023-04-24T00:50:28;99330.81;;;13.06;56.90
78603;BME280;68102;46.068;18.206;2023-04-24T00:50:58;99330.00;;;13.06;57.50
78603;BME280;68102;46.068;18.206;2023-04-24T00:51:29;99334.47;;;13.05;57.83
78603;BME280;68102;46.068;18.206;2023-04-24T00:52:01;99337.28;;;13.03;57.33
78603;BME280;68102;46.068;18.206;2023-04-24T00:52:32;99336.75;;;13.00;57.91
78603;BME280;68102;46.068;18.206;2023-04-24T00:53:03;99334.94;;;13.00;57.78
78603;BME280;68102;46.068;18.206;2023-04-24T00:53:33;99340.41;;;12.99;58.32
78603;BME280;68102;46.068;18.206;2023-04-24T00:54:04;99341.72;;;12.95;57.85
78603;BME280;68102;46.068;18.206;2023-04-24T00:54:35;99347.19;;;12.93;58.86
78603;BME280;68102;46.068;18.206;2023-04-24T00:55:06;99343.88;;;12.91;58.35
78603;BME280;68102;46.068;18.206;2023-04-24T00:55:37;99343.41;;;12.88;58.53
78603;BME280;68102;46.068;18.206;2023-04-24T00:56:08;99337.94;;;12.89;58.43
78603;BME280;68102;46.068;18.206;2023-04-24T00:56:39;99344.22;;;12.88;58.05
78603;BME280;68102;46.068;18.206;2023-04-24T00:57:10;99344.06;;;12.90;58.03
78603;BME280;68102;46.068;18.206;2023-04-24T00:57:41;99341.41;;;12.90;58.77
78603;BME280;68102;46.068;18.206;2023-04-24T00:58:12;99340.59;;;12.89;58.44
78603;BME280;68102;46.068;18.206;2023-04-24T00:58:43;99335.94;;;12.91;58.59
78603;BME280;68102;46.068;18.206;2023-04-24T00:59:16;99339.75;;;12.89;58.52
78603;BME280;68102;46.068;18.206;2023-04-24T00:59:47;99344.56;;;12.85;58.54
78603;BME280;68102;46.068;18.206;2023-04-24T01:00:18;99328.66;;;12.85;57.86
78603;BME280;68102;46.068;18.206;2023-04-24T01:00:50;99331.97;;;12.87;58.23
78603;BME280;68102;46.068;18.206;2023-04-24T01:01:23;99332.59;;;12.81;58.79
78603;BME280;68102;46.068;18.206;2023-04-24T01:01:55;99339.72;;;12.81;58.38
78603;BME280;68102;46.068;18.206;2023-04-24T01:02:26;99327.31;;;12.81;59.24
78603;BME280;68102;46.068;18.206;2023-04-24T01:03:01;99327.31;;;12.81;58.91
78603;BME280;68102;46.068;18.206;2023-04-24T01:03:35;99321.84;;;12.83;59.16
78603;BME280;68102;46.068;18.206;2023-04-24T01:04:09;99322.84;;;12.82;58.70
78603;BME280;68102;46.068;18.206;2023-04-24T01:04:40;99331.63;;;12.82;59.05
78603;BME280;68102;46.068;18.206;2023-04-24T01:05:14;99329.78;;;12.83;59.26
78603;BME280;68102;46.068;18.206;2023-04-24T01:05:45;99331.78;;;12.81;58.71
78603;BME280;68102;46.068;18.206;2023-04-24T01:06:18;99329.31;;;12.79;59.42
78603;BME280;68102;46.068;18.206;2023-04-24T01:06:50;99315.56;;;12.76;59.68
78603;BME280;68102;46.068;18.206;2023-04-24T01:07:21;99323.19;;;12.79;59.44
78603;BME280;68102;46.068;18.206;2023-04-24T01:07:52;99318.72;;;12.79;59.13
78603;BME280;68102;46.068;18.206;2023-04-24T01:08:24;99318.22;;;12.76;58.58
78603;BME280;68102;46.068;18.206;2023-04-24T01:08:57;99331.28;;;12.77;58.84
78603;BME280;68102;46.068;18.206;2023-04-24T01:09:27;99327.47;;;12.71;59.73
78603;BME280;68102;46.068;18.206;2023-04-24T01:09:58;99328.31;;;12.72;59.36
78603;BME280;68102;46.068;18.206;2023-04-24T01:10:29;99331.78;;;12.72;60.11
78603;BME280;68102;46.068;18.206;2023-04-24T01:11:03;99330.28;;;12.70;59.38
78603;BME280;68102;46.068;18.206;2023-04-24T01:11:34;99324.16;;;12.69;60.24
78603;BME280;68102;46.068;18.206;2023-04-24T01:12:05;99327.47;;;12.71;59.85
78603;BME280;68102;46.068;18.206;2023-04-24T01:12:36;99334.44;;;12.72;60.26
78603;BME280;68102;46.068;18.206;2023-04-24T01:13:08;99314.41;;;12.70;59.60
78603;BME280;68102;46.068;18.206;2023-04-24T01:13:39;99320.69;;;12.69;59.87
78603;BME280;68102;46.068;18.206;2023-04-24T01:14:10;99309.44;;;12.67;59.99
78603;BME280;68102;46.068;18.206;2023-04-24T01:14:40;99322.34;;;12.70;59.55
78603;BME280;68102;46.068;18.206;2023-04-24T01:15:11;99316.03;;;12.63;59.55
78603;BME280;68102;46.068;18.206;2023-04-24T01:15:42;99325.34;;;12.67;59.66
78603;BME280;68102;46.068;18.206;2023-04-24T01:16:13;99327.81;;;12.68;59.50
78603;BME280;68102;46.068;18.206;2023-04-24T01:16:44;99321.84;;;12.66;59.76
78603;BME280;68102;46.068;18.206;2023-04-24T01:17:15;99324.34;;;12.68;59.73
78603;BME280;68102;46.068;18.206;2023-04-24T01:17:46;99317.38;;;12.67;60.05
78603;BME280;68102;46.068;18.206;2023-04-24T01:18:17;99322.34;;;12.70;59.24
78603;BME280;68102;46.068;18.206;2023-04-24T01:18:48;99311.09;;;12.68;60.18
78603;BME280;68102;46.068;18.206;2023-04-24T01:19:18;99320.69;;;12.69;59.82
78603;BME280;68102;46.068;18.206;2023-04-24T01:19:49;99318.88;;;12.69;59.66
78603;BME280;68102;46.068;18.206;2023-04-24T01:20:20;99321.69;;;12.68;59.84
78603;BME280;68102;46.068;18.206;2023-04-24T01:20:53;99318.06;;;12.69;59.79
78603;BME280;68102;46.068;18.206;2023-04-24T01:21:26;99316.06;;;12.71;59.95
78603;BME280;68102;46.068;18.206;2023-04-24T01:22:02;99324.66;;;12.73;59.69
78603;BME280;68102;46.068;18.206;2023-04-24T01:22:34;99318.53;;;12.72;59.65
78603;BME280;68102;46.068;18.206;2023-04-24T01:23:05;99328.31;;;12.72;60.39
78603;BME280;68102;46.068;18.206;2023-04-24T01:23:36;99318.72;;;12.71;60.79
78603;BME280;68102;46.068;18.206;2023-04-24T01:24:07;99319.72;;;12.70;60.88
78603;BME280;68102;46.068;18.206;2023-04-24T01:24:38;99321.53;;;12.69;60.01
78603;BME280;68102;46.068;18.206;2023-04-24T01:25:09;99319.38;;;12.65;60.41
78603;BME280;68102;46.068;18.206;2023-04-24T01:25:39;99319.22;;;12.66;59.91
78603;BME280;68102;46.068;18.206;2023-04-24T01:26:11;99324.34;;;12.68;59.85
78603;BME280;68102;46.068;18.206;2023-04-24T01:26:42;99324.34;;;12.68;60.58
78603;BME280;68102;46.068;18.206;2023-04-24T01:27:12;99328.81;;;12.67;60.78
78603;BME280;68102;46.068;18.206;2023-04-24T01:27:43;99323.69;;;12.66;60.29
78603;BME280;68102;46.068;18.206;2023-04-24T01:28:14;99320.34;;;12.64;60.54
78603;BME280;68102;46.068;18.206;2023-04-24T01:28:45;99318.38;;;12.66;60.12
78603;BME280;68102;46.068;18.206;2023-04-24T01:29:16;99311.91;;;12.60;60.13
78603;BME280;68102;46.068;18.206;2023-04-24T01:29:47;99325.63;;;12.64;60.10
78603;BME280;68102;46.068;18.206;2023-04-24T01:30:22;99318.53;;;12.64;60.32
78603;BME280;68102;46.068;18.206;2023-04-24T01:30:52;99309.59;;;12.57;60.88
78603;BME280;68102;46.068;18.206;2023-04-24T01:31:24;99317.03;;;12.62;60.49
78603;BME280;68102;46.068;18.206;2023-04-24T01:31:55;99304.28;;;12.57;61.25
78603;BME280;68102;46.068;18.206;2023-04-24T01:32:26;99312.88;;;12.59;61.43
78603;BME280;68102;46.068;18.206;2023-04-24T01:32:58;99308.44;;;12.52;61.44
78603;BME280;68102;46.068;18.206;2023-04-24T01:33:29;99312.41;;;12.56;61.28
78603;BME280;68102;46.068;18.206;2023-04-24T01:34:00;99320.34;;;12.56;61.36
78603;BME280;68102;46.068;18.206;2023-04-24T01:34:31;99318.69;;;12.55;61.25
78603;BME280;68102;46.068;18.206;2023-04-24T01:35:03;99309.59;;;12.49;61.69
78603;BME280;68102;46.068;18.206;2023-04-24T01:35:34;99326.94;;;12.52;61.88
78603;BME280;68102;46.068;18.206;2023-04-24T01:36:06;99310.38;;;12.41;62.10
78603;BME280;68102;46.068;18.206;2023-04-24T01:36:38;99326.63;;;12.47;62.22
78603;BME280;68102;46.068;18.206;2023-04-24T01:37:09;99320.63;;;12.44;61.76
78603;BME280;68102;46.068;18.206;2023-04-24T01:37:39;99320.63;;;12.44;61.83
78603;BME280;68102;46.068;18.206;2023-04-24T01:38:10;99315.66;;;12.41;62.07
78603;BME280;68102;46.068;18.206;2023-04-24T01:38:41;99315.50;;;12.43;61.60
78603;BME280;68102;46.068;18.206;2023-04-24T01:39:12;99322.63;;;12.42;62.65
78603;BME280;68102;46.068;18.206;2023-04-24T01:39:43;99324.59;;;12.40;63.04
78603;BME280;68102;46.068;18.206;2023-04-24T01:40:14;99314.19;;;12.39;61.90
78603;BME280;68102;46.068;18.206;2023-04-24T01:40:44;99311.03;;;12.35;62.63
78603;BME280;68102;46.068;18.206;2023-04-24T01:41:15;99318.66;;;12.38;62.29
78603;BME280;68102;46.068;18.206;2023-04-24T01:41:46;99314.00;;;12.40;62.69
78603;BME280;68102;46.068;18.206;2023-04-24T01:42:17;99302.44;;;12.33;62.48
78603;BME280;68102;46.068;18.206;2023-04-24T01:42:47;99314.34;;;12.37;63.16
78603;BME280;68102;46.068;18.206;2023-04-24T01:43:18;99307.22;;;12.30;63.27
78603;BME280;68102;46.068;18.206;2023-04-24T01:43:50;99307.22;;;12.30;63.17
78603;BME280;68102;46.068;18.206;2023-04-24T01:44:21;99294.44;;;12.25;62.72
78603;BME280;68102;46.068;18.206;2023-04-24T01:44:52;99302.38;;;12.25;63.18
78603;BME280;68102;46.068;18.206;2023-04-24T01:45:24;99310.31;;;12.25;63.00
78603;BME280;68102;46.068;18.206;2023-04-24T01:45:54;99307.69;;;12.25;63.00
78603;BME280;68102;46.068;18.206;2023-04-24T01:46:25;99309.50;;;12.25;63.23
78603;BME280;68102;46.068;18.206;2023-04-24T01:46:56;99305.03;;;12.25;62.72
78603;BME280;68102;46.068;18.206;2023-04-24T01:47:27;99306.34;;;12.21;63.05
78603;BME280;68102;46.068;18.206;2023-04-24T01:47:58;99307.34;;;12.20;63.32
78603;BME280;68102;46.068;18.206;2023-04-24T01:48:29;99301.56;;;12.17;63.65
78603;BME280;68102;46.068;18.206;2023-04-24T01:49:01;99303.38;;;12.24;63.09
78603;BME280;68102;46.068;18.206;2023-04-24T01:49:32;99299.06;;;12.23;63.25
78603;BME280;68102;46.068;18.206;2023-04-24T01:50:04;99303.91;;;12.28;63.91
78603;BME280;68102;46.068;18.206;2023-04-24T01:50:35;99304.75;;;12.28;64.03
78603;BME280;68102;46.068;18.206;2023-04-24T01:51:06;99308.06;;;12.30;63.14
78603;BME280;68102;46.068;18.206;2023-04-24T01:51:37;99309.88;;;12.30;63.42
78603;BME280;68102;46.068;18.206;2023-04-24T01:52:08;99305.03;;;12.25;63.74
78603;BME280;68102;46.068;18.206;2023-04-24T01:52:38;99304.56;;;12.30;63.82
78603;BME280;68102;46.068;18.206;2023-04-24T01:53:09;99306.69;;;12.26;63.34
78603;BME280;68102;46.068;18.206;2023-04-24T01:53:40;99312.16;;;12.25;63.99
78603;BME280;68102;46.068;18.206;2023-04-24T01:54:10;99310.66;;;12.22;63.42
78603;BME280;68102;46.068;18.206;2023-04-24T01:54:41;99300.72;;;12.16;63.63
78603;BME280;68102;46.068;18.206;2023-04-24T01:55:12;99304.69;;;12.20;63.86
78603;BME280;68102;46.068;18.206;2023-04-24T01:55:42;99306.69;;;12.18;63.95
78603;BME280;68102;46.068;18.206;2023-04-24T01:56:13;99304.03;;;12.18;64.22
78603;BME280;68102;46.068;18.206;2023-04-24T01:56:45;99309.31;;;12.18;63.46
78603;BME280;68102;46.068;18.206;2023-04-24T01:57:16;99304.34;;;12.15;64.05
78603;BME280;68102;46.068;18.206;2023-04-24T01:57:47;99304.03;;;12.18;63.26
78603;BME280;68102;46.068;18.206;2023-04-24T01:58:17;99297.25;;;12.16;63.30
78603;BME280;68102;46.068;18.206;2023-04-24T01:58:50;99303.53;;;12.15;63.68
78603;BME280;68102;46.068;18.206;2023-04-24T01:59:21;99302.72;;;12.14;64.31
78603;BME280;68102;46.068;18.206;2023-04-24T01:59:53;99300.22;;;12.12;63.61
78603;BME280;68102;46.068;18.206;2023-04-24T02:00:24;99300.69;;;12.08;63.90
78603;BME280;68102;46.068;18.206;2023-04-24T02:00:57;99296.75;;;12.12;64.05
78603;BME280;68102;46.068;18.206;2023-04-24T02:01:34;99301.72;;;12.15;64.89
78603;BME280;68102;46.068;18.206;2023-04-24T02:02:06;99303.38;;;12.16;64.56
78603;BME280;68102;46.068;18.206;2023-04-24T02:02:37;99297.41;;;12.14;64.19
78603;BME280;68102;46.068;18.206;2023-04-24T02:03:08;99295.75;;;12.13;64.16
78603;BME280;68102;46.068;18.206;2023-04-24T02:03:38;99294.09;;;12.12;64.41
78603;BME280;68102;46.068;18.206;2023-04-24T02:04:09;99297.41;;;12.14;64.98
78603;BME280;68102;46.068;18.206;2023-04-24T02:04:39;99300.06;;;12.14;64.90
78603;BME280;68102;46.068;18.206;2023-04-24T02:05:10;99297.41;;;12.14;65.03
78603;BME280;68102;46.068;18.206;2023-04-24T02:05:44;99299.06;;;12.15;64.48
78603;BME280;68102;46.068;18.206;2023-04-24T02:06:15;99288.81;;;12.12;64.39
78603;BME280;68102;46.068;18.206;2023-04-24T02:06:46;99289.63;;;12.12;64.47
78603;BME280;68102;46.068;18.206;2023-04-24T02:07:16;99282.50;;;12.05;64.72
78603;BME280;68102;46.068;18.206;2023-04-24T02:07:47;99291.47;;;12.12;64.39
78603;BME280;68102;46.068;18.206;2023-04-24T02:08:18;99283.84;;;12.09;64.59
78603;BME280;68102;46.068;18.206;2023-04-24T02:08:48;99294.09;;;12.12;64.49
78603;BME280;68102;46.068;18.206;2023-04-24T02:09:19;99290.47;;;12.13;65.04
78603;BME280;68102;46.068;18.206;2023-04-24T02:09:50;99292.13;;;12.14;64.65
78603;BME280;68102;46.068;18.206;2023-04-24T02:10:20;99287.97;;;12.11;64.92
78603;BME280;68102;46.068;18.206;2023-04-24T02:10:51;99285.34;;;12.11;64.81
78603;BME280;68102;46.068;18.206;2023-04-24T02:11:22;99284.81;;;12.08;65.06
78603;BME280;68102;46.068;18.206;2023-04-24T02:11:52;99280.50;;;12.07;64.58
78603;BME280;68102;46.068;18.206;2023-04-24T02:12:23;99288.28;;;12.08;64.78
78603;BME280;68102;46.068;18.206;2023-04-24T02:12:53;99290.94;;;12.08;64.67
78603;BME280;68102;46.068;18.206;2023-04-24T02:13:24;99295.56;;;12.06;64.47
78603;BME280;68102;46.068;18.206;2023-04-24T02:13:54;99294.72;;;12.06;65.39
78603;BME280;68102;46.068;18.206;2023-04-24T02:14:25;99291.41;;;12.04;65.44
78603;BME280;68102;46.068;18.206;2023-04-24T02:14:56;99294.88;;;12.04;64.83
78603;BME280;68102;46.068;18.206;2023-04-24T02:15:26;99294.06;;;12.04;65.37
78603;BME280;68102;46.068;18.206;2023-04-24T02:15:58;99287.44;;;12.00;64.77
78603;BME280;68102;46.068;18.206;2023-04-24T02:16:29;99290.91;;;12.00;65.61
78603;BME280;68102;46.068;18.206;2023-04-24T02:17:06;99290.09;;;12.00;64.64
78603;BME280;68102;46.068;18.206;2023-04-24T02:17:37;99291.41;;;11.96;65.24
78603;BME280;68102;46.068;18.206;2023-04-24T02:18:08;99296.69;;;11.96;65.23
78603;BME280;68102;46.068;18.206;2023-04-24T02:18:38;99290.91;;;11.92;65.82
78603;BME280;68102;46.068;18.206;2023-04-24T02:19:09;99296.34;;;11.91;65.08
78603;BME280;68102;46.068;18.206;2023-04-24T02:19:40;99294.97;;;11.87;65.65
78603;BME280;68102;46.068;18.206;2023-04-24T02:20:10;99289.03;;;11.85;65.91
78603;BME280;68102;46.068;18.206;2023-04-24T02:20:41;99294.81;;;11.88;65.58
78603;BME280;68102;46.068;18.206;2023-04-24T02:21:12;99293.31;;;11.86;65.37
78603;BME280;68102;46.068;18.206;2023-04-24T02:21:42;99293.31;;;11.86;65.05
78603;BME280;68102;46.068;18.206;2023-04-24T02:22:13;99295.31;;;11.83;65.55
78603;BME280;68102;46.068;18.206;2023-04-24T02:22:43;99302.25;;;11.85;65.42
78603;BME280;68102;46.068;18.206;2023-04-24T02:23:14;99299.78;;;11.83;65.42
78603;BME280;68102;46.068;18.206;2023-04-24T02:23:44;99302.41;;;11.83;65.93
78603;BME280;68102;46.068;18.206;2023-04-24T02:24:15;99292.97;;;11.80;65.75
78603;BME280;68102;46.068;18.206;2023-04-24T02:24:46;99286.34;;;11.76;65.63
78603;BME280;68102;46.068;18.206;2023-04-24T02:25:16;99284.38;;;11.78;65.29
78603;BME280;68102;46.068;18.206;2023-04-24T02:25:47;99289.50;;;11.80;65.50
78603;BME280;68102;46.068;18.206;2023-04-24T02:26:18;99286.88;;;11.80;66.07
78603;BME280;68102;46.068;18.206;2023-04-24T02:26:48;99280.69;;;11.71;65.86
78603;BME280;68102;46.068;18.206;2023-04-24T02:27:19;99287.16;;;11.77;65.51
78603;BME280;68102;46.068;18.206;2023-04-24T02:27:50;99289.50;;;11.80;66.23
78603;BME280;68102;46.068;18.206;2023-04-24T02:28:20;99291.31;;;11.79;65.53
78603;BME280;68102;46.068;18.206;2023-04-24T02:28:51;99286.72;;;11.81;66.27
78603;BME280;68102;46.068;18.206;2023-04-24T02:29:21;99289.34;;;11.81;66.54
78603;BME280;68102;46.068;18.206;2023-04-24T02:29:53;99288.38;;;11.82;66.51
78603;BME280;68102;46.068;18.206;2023-04-24T02:30:23;99288.69;;;11.79;65.84
78603;BME280;68102;46.068;18.206;2023-04-24T02:30:54;99287.53;;;11.82;65.96
78603;BME280;68102;46.068;18.206;2023-04-24T02:31:24;99290.00;;;11.83;65.78
78603;BME280;68102;46.068;18.206;2023-04-24T02:31:55;99282.25;;;11.82;65.95
78603;BME280;68102;46.068;18.206;2023-04-24T02:32:25;99280.28;;;11.84;66.50
78603;BME280;68102;46.068;18.206;2023-04-24T02:32:56;99276.78;;;11.83;66.17
78603;BME280;68102;46.068;18.206;2023-04-24T02:33:27;99284.72;;;11.83;66.54
78603;BME280;68102;46.068;18.206;2023-04-24T02:33:57;99273.47;;;11.81;66.21
78603;BME280;68102;46.068;18.206;2023-04-24T02:34:28;99282.91;;;11.84;65.67
78603;BME280;68102;46.068;18.206;2023-04-24T02:34:58;99286.38;;;11.85;66.53
78603;BME280;68102;46.068;18.206;2023-04-24T02:35:29;99284.72;;;11.83;65.77
78603;BME280;68102;46.068;18.206;2023-04-24T02:36:00;99281.56;;;11.80;66.60
78603;BME280;68102;46.068;18.206;2023-04-24T02:36:31;99289.34;;;11.81;66.88
78603;BME280;68102;46.068;18.206;2023-04-24T02:37:01;99285.88;;;11.81;66.04
78603;BME280;68102;46.068;18.206;2023-04-24T02:37:32;99273.44;;;11.73;66.35
78603;BME280;68102;46.068;18.206;2023-04-24T02:38:03;99275.75;;;11.76;66.20
78603;BME280;68102;46.068;18.206;2023-04-24T02:38:34;99284.06;;;11.81;66.58
78603;BME280;68102;46.068;18.206;2023-04-24T02:39:05;99276.44;;;11.78;66.53
78603;BME280;68102;46.068;18.206;2023-04-24T02:39:35;99276.28;;;11.80;66.72
78603;BME280;68102;46.068;18.206;2023-04-24T02:40:06;99277.94;;;11.81;66.25
78603;BME280;68102;46.068;18.206;2023-04-24T02:40:37;99277.13;;;11.80;66.44
78603;BME280;68102;46.068;18.206;2023-04-24T02:41:08;99282.56;;;11.79;66.91
78603;BME280;68102;46.068;18.206;2023-04-24T02:41:38;99270.84;;;11.81;66.70
78603;BME280;68102;46.068;18.206;2023-04-24T02:42:09;99268.34;;;11.80;66.60
78603;BME280;68102;46.068;18.206;2023-04-24T02:42:40;99282.09;;;11.83;66.42